createdAt,value
2022-12-25T00:01:07.553Z,77.17
2022-12-25T00:03:48.830Z,77.09
2022-12-25T00:06:19.007Z,76.87
2022-12-25T00:08:47.889Z,77.25
2022-12-25T00:11:19.040Z,76.88
2022-12-25T00:13:48.954Z,76.98
2022-12-25T00:16:20.258Z,77.03
2022-12-25T00:18:50.602Z,77.11
2022-12-25T00:21:21.156Z,77.00
2022-12-25T00:23:54.450Z,77.13
2022-12-25T00:26:24.754Z,77.23
2022-12-25T00:28:54.601Z,77.20
2022-12-25T00:31:24.965Z,77.03
2022-12-25T00:33:54.005Z,77.23
2022-12-25T00:36:23.917Z,77.26
2022-12-25T00:38:52.918Z,77.13
2022-12-25T00:41:37.586Z,77.05
2022-12-25T00:44:06.673Z,77.06
2022-12-25T00:46:35.815Z,77.07
2022-12-25T00:49:04.814Z,77.09
2022-12-25T00:51:33.752Z,77.17
2022-12-25T00:54:02.819Z,76.97
2022-12-25T00:56:31.677Z,77.08
2022-12-25T00:59:00.524Z,77.15
2022-12-25T01:01:29.528Z,77.20
2022-12-25T01:03:59.747Z,77.05
2022-12-25T01:06:28.614Z,77.18
2022-12-25T01:09:16.492Z,77.17
2022-12-25T01:11:45.656Z,77.16
2022-12-25T01:14:14.863Z,77.07
2022-12-25T01:16:43.995Z,77.11
2022-12-25T01:19:12.996Z,77.34
2022-12-25T01:21:41.851Z,77.24
2022-12-25T01:24:10.723Z,77.03
2022-12-25T01:26:39.630Z,77.07
2022-12-25T01:29:08.658Z,77.01
2022-12-25T01:31:37.565Z,76.92
2022-12-25T01:34:06.402Z,76.79
2022-12-25T01:36:35.243Z,76.79
2022-12-25T01:39:04.937Z,76.91
2022-12-25T01:41:34.297Z,76.85
2022-12-25T01:44:06.877Z,76.94
2022-12-25T01:46:36.297Z,76.82
2022-12-25T01:49:08.031Z,76.92
2022-12-25T01:51:39.907Z,76.72
2022-12-25T01:54:12.896Z,76.80
2022-12-25T01:56:43.820Z,76.78
2022-12-25T01:59:16.909Z,76.81
2022-12-25T02:01:46.889Z,76.69
2022-12-25T02:04:37.944Z,76.81
2022-12-25T02:07:09.695Z,76.76
2022-12-25T02:09:38.621Z,76.80
2022-12-25T02:12:12.302Z,76.73
2022-12-25T02:14:41.283Z,76.74
2022-12-25T02:17:19.953Z,76.67
2022-12-25T02:20:13.574Z,76.86
2022-12-25T02:22:56.942Z,76.76
2022-12-25T02:25:43.092Z,76.72
2022-12-25T02:28:19.871Z,76.66
2022-12-25T02:30:56.303Z,76.65
2022-12-25T02:33:50.201Z,76.59
2022-12-25T02:36:23.245Z,76.64
2022-12-25T02:39:16.774Z,76.63
2022-12-25T02:41:48.127Z,76.60
2022-12-25T02:44:39.087Z,76.68
2022-12-25T02:47:28.468Z,76.55
2022-12-25T02:50:17.252Z,76.58
2022-12-25T02:53:05.911Z,76.50
2022-12-25T02:56:00.571Z,76.52
2022-12-25T02:58:48.853Z,76.51
2022-12-25T03:01:41.512Z,76.52
2022-12-25T03:04:32.927Z,76.30
2022-12-25T03:07:07.989Z,76.45
2022-12-25T03:09:58.729Z,76.49
2022-12-25T03:12:38.305Z,76.31
2022-12-25T03:15:28.471Z,76.45
2022-12-25T03:17:59.220Z,76.32
2022-12-25T03:20:46.910Z,76.42
2022-12-25T03:23:38.401Z,76.39
2022-12-25T03:26:26.763Z,76.34
2022-12-25T03:28:55.605Z,76.18
2022-12-25T03:31:32.680Z,76.26
2022-12-25T03:34:31.451Z,76.22
2022-12-25T03:37:29.046Z,76.41
2022-12-25T03:40:39.015Z,76.31
2022-12-25T03:43:37.595Z,76.28
2022-12-25T03:46:29.177Z,76.35
2022-12-25T03:49:23.710Z,76.31
2022-12-25T03:52:12.633Z,76.46
2022-12-25T03:55:02.428Z,76.38
2022-12-25T03:57:53.314Z,76.31
2022-12-25T04:00:40.578Z,76.41
2022-12-25T04:03:27.946Z,76.56
2022-12-25T04:06:15.092Z,76.58
2022-12-25T04:09:02.230Z,76.58
2022-12-25T04:11:49.357Z,76.47
2022-12-25T04:14:36.644Z,76.24
2022-12-25T04:17:23.850Z,76.40
2022-12-25T04:20:11.166Z,76.45
2022-12-25T04:22:58.658Z,76.41
2022-12-25T04:25:45.717Z,76.40
2022-12-25T04:28:32.902Z,76.48
2022-12-25T04:31:20.382Z,76.46
2022-12-25T04:34:07.541Z,76.47
2022-12-25T04:36:36.394Z,76.36
2022-12-25T04:39:05.377Z,76.31
2022-12-25T04:41:34.355Z,76.40
2022-12-25T04:44:03.331Z,76.25
2022-12-25T04:46:32.329Z,76.34
2022-12-25T04:49:01.278Z,76.21
2022-12-25T04:51:30.277Z,76.30
2022-12-25T04:53:59.146Z,76.35
2022-12-25T04:56:28.334Z,76.41
2022-12-25T04:58:57.390Z,76.18
2022-12-25T05:01:26.381Z,76.15
2022-12-25T05:03:55.381Z,76.16
2022-12-25T05:06:24.306Z,76.08
2022-12-25T05:08:53.217Z,75.99
2022-12-25T05:11:22.445Z,76.18
2022-12-25T05:13:51.434Z,76.05
2022-12-25T05:16:21.294Z,76.00
2022-12-25T05:18:51.238Z,76.05
2022-12-25T05:21:20.667Z,76.02
2022-12-25T05:23:51.490Z,76.05
2022-12-25T05:26:22.523Z,76.13
2022-12-25T05:28:52.028Z,76.00
2022-12-25T05:31:21.149Z,76.09
2022-12-25T05:33:51.194Z,76.00
2022-12-25T05:36:20.239Z,75.95
2022-12-25T05:38:50.038Z,76.06
2022-12-25T05:41:19.553Z,76.00
2022-12-25T05:43:48.382Z,76.10
2022-12-25T05:46:17.367Z,76.10
2022-12-25T05:48:46.207Z,75.97
2022-12-25T05:51:15.622Z,75.83
2022-12-25T05:53:44.695Z,75.99
2022-12-25T05:56:13.692Z,76.06
2022-12-25T05:58:42.624Z,76.12
2022-12-25T06:01:13.456Z,76.09
2022-12-25T06:03:42.547Z,76.05
2022-12-25T06:06:12.240Z,75.92
2022-12-25T06:08:41.758Z,75.95
2022-12-25T06:11:12.353Z,75.87
2022-12-25T06:13:41.680Z,75.88
2022-12-25T06:16:12.181Z,75.84
2022-12-25T06:18:43.596Z,75.80
2022-12-25T06:21:14.586Z,75.76
2022-12-25T06:23:44.037Z,75.97
2022-12-25T06:26:15.250Z,75.58
2022-12-25T06:28:44.224Z,75.74
2022-12-25T06:31:16.195Z,75.60
2022-12-25T06:33:45.748Z,75.61
2022-12-25T06:36:16.601Z,75.69
2022-12-25T06:38:45.893Z,75.70
2022-12-25T06:41:17.191Z,75.60
2022-12-25T06:43:49.160Z,75.58
2022-12-25T06:46:18.728Z,75.58
2022-12-25T06:48:49.005Z,75.47
2022-12-25T06:51:19.295Z,75.58
2022-12-25T06:53:48.316Z,75.67
2022-12-25T06:56:20.673Z,75.55
2022-12-25T06:58:51.054Z,75.71
2022-12-25T07:01:23.503Z,75.59
2022-12-25T07:03:55.437Z,75.53
2022-12-25T07:06:24.410Z,75.41
2022-12-25T07:08:53.618Z,75.38
2022-12-25T07:11:23.256Z,75.49
2022-12-25T07:13:52.123Z,75.41
2022-12-25T07:16:21.499Z,75.36
2022-12-25T07:18:50.512Z,75.48
2022-12-25T07:21:21.250Z,75.34
2022-12-25T07:23:50.978Z,75.33
2022-12-25T07:26:20.466Z,75.43
2022-12-25T07:28:49.318Z,75.54
2022-12-25T07:31:19.075Z,75.39
2022-12-25T07:33:48.157Z,75.27
2022-12-25T07:36:17.006Z,75.48
2022-12-25T07:38:49.633Z,75.74
2022-12-25T07:41:18.640Z,75.59
2022-12-25T07:43:51.303Z,75.34
2022-12-25T07:46:21.338Z,75.46
2022-12-25T07:48:51.213Z,75.56
2022-12-25T07:51:20.146Z,75.64
2022-12-25T07:53:49.151Z,75.32
2022-12-25T07:56:21.129Z,75.00
2022-12-25T07:58:51.099Z,74.82
2022-12-25T08:01:22.519Z,74.90
2022-12-25T08:03:53.052Z,74.73
2022-12-25T08:06:26.268Z,74.46
2022-12-25T08:08:55.282Z,73.99
2022-12-25T08:11:24.144Z,74.17
2022-12-25T08:13:52.987Z,73.85
2022-12-25T08:16:22.233Z,73.87
2022-12-25T08:18:51.198Z,73.74
2022-12-25T08:21:20.290Z,73.72
2022-12-25T08:23:49.271Z,73.74
2022-12-25T08:26:19.931Z,73.40
2022-12-25T08:28:49.759Z,73.67
2022-12-25T08:31:21.245Z,73.97
2022-12-25T08:33:53.059Z,73.67
2022-12-25T08:36:22.211Z,73.96
2022-12-25T08:38:53.478Z,73.89
2022-12-25T08:41:24.465Z,73.78
2022-12-25T08:43:53.451Z,73.56
2022-12-25T08:46:22.574Z,72.80
2022-12-25T08:48:51.525Z,73.13
2022-12-25T08:51:22.467Z,73.04
2022-12-25T08:53:52.920Z,72.98
2022-12-25T08:56:21.965Z,72.66
2022-12-25T08:58:50.822Z,72.50
2022-12-25T09:01:19.803Z,72.36
2022-12-25T09:03:48.731Z,71.62
2022-12-25T09:06:17.783Z,70.38
2022-12-25T09:08:49.532Z,70.76
2022-12-25T09:11:20.100Z,71.40
2022-12-25T09:13:49.432Z,71.41
2022-12-25T09:16:20.986Z,70.98
2022-12-25T09:18:50.720Z,70.94
2022-12-25T09:21:20.194Z,71.18
2022-12-25T09:23:49.384Z,71.12
2022-12-25T09:26:19.690Z,70.64
2022-12-25T09:28:51.771Z,70.30
2022-12-25T09:31:22.925Z,70.01
2022-12-25T09:33:55.517Z,70.14
2022-12-25T09:36:25.111Z,69.82
2022-12-25T09:38:54.236Z,69.55
2022-12-25T09:41:29.831Z,69.40
2022-12-25T09:44:03.783Z,69.04
2022-12-25T09:46:41.069Z,68.70
2022-12-25T09:49:19.622Z,68.60
2022-12-25T09:51:53.216Z,68.28
2022-12-25T09:54:39.858Z,68.41
2022-12-25T09:57:12.165Z,68.14
2022-12-25T09:59:43.538Z,68.50
2022-12-25T10:02:42.815Z,68.37
2022-12-25T10:05:35.710Z,67.78
2022-12-25T10:08:16.118Z,67.63
2022-12-25T10:10:58.660Z,67.29
2022-12-25T10:13:55.383Z,66.90
2022-12-25T10:16:26.101Z,67.05
2022-12-25T10:19:09.525Z,66.89
2022-12-25T10:21:39.331Z,67.07
2022-12-25T10:24:20.608Z,66.50
2022-12-25T10:26:51.158Z,65.65
2022-12-25T10:29:20.656Z,65.35
2022-12-25T10:31:54.748Z,65.26
2022-12-25T10:34:24.606Z,65.74
2022-12-25T10:36:53.488Z,65.66
2022-12-25T10:39:25.049Z,65.57
2022-12-25T10:42:28.573Z,64.86
2022-12-25T10:44:59.885Z,64.09
2022-12-25T10:47:31.768Z,62.91
2022-12-25T10:50:01.872Z,62.85
2022-12-25T10:52:30.831Z,63.29
2022-12-25T10:55:10.086Z,63.48
2022-12-25T10:57:46.051Z,62.89
2022-12-25T11:00:23.478Z,62.73
2022-12-25T11:02:52.780Z,62.37
2022-12-25T11:05:28.119Z,61.96
2022-12-25T11:07:59.502Z,61.81
2022-12-25T11:10:30.653Z,61.84
2022-12-25T11:13:00.964Z,61.62
2022-12-25T11:15:37.673Z,61.13
2022-12-25T11:18:19.738Z,61.01
2022-12-25T11:20:54.124Z,60.84
2022-12-25T11:23:25.192Z,61.01
2022-12-25T11:25:58.605Z,60.37
2022-12-25T11:28:29.491Z,59.22
2022-12-25T11:31:01.085Z,59.56
2022-12-25T11:33:35.467Z,59.35
2022-12-25T11:36:13.669Z,59.24
2022-12-25T11:38:42.582Z,59.25
2022-12-25T11:41:12.850Z,59.40
2022-12-25T11:43:46.993Z,59.46
2022-12-25T11:46:20.513Z,59.14
2022-12-25T11:48:55.522Z,59.01
2022-12-25T11:51:28.938Z,58.93
2022-12-25T11:54:05.593Z,58.25
2022-12-25T11:56:34.533Z,58.62
2022-12-25T11:59:07.286Z,58.26
2022-12-25T12:01:42.909Z,58.03
2022-12-25T12:04:16.303Z,57.88
2022-12-25T12:06:54.093Z,57.98
2022-12-25T12:09:37.233Z,57.94
2022-12-25T12:12:12.663Z,57.77
2022-12-25T12:14:49.262Z,57.86
2022-12-25T12:17:19.583Z,57.75
2022-12-25T12:19:48.475Z,57.28
2022-12-25T12:22:21.556Z,57.26
2022-12-25T12:24:56.179Z,57.54
2022-12-25T12:27:31.851Z,57.37
2022-12-25T12:30:01.423Z,57.36
2022-12-25T12:32:43.066Z,57.73
2022-12-25T12:35:19.834Z,57.82
2022-12-25T12:37:52.979Z,57.90
2022-12-25T12:40:32.581Z,57.96
2022-12-25T12:43:02.228Z,57.84
2022-12-25T12:45:34.683Z,57.89
2022-12-25T12:48:15.483Z,57.98
2022-12-25T12:50:44.449Z,57.77
2022-12-25T12:53:29.968Z,57.83
2022-12-25T12:56:10.353Z,57.79
2022-12-25T12:58:44.848Z,57.54
2022-12-25T13:01:29.962Z,57.88
2022-12-25T13:04:14.559Z,58.03
2022-12-25T13:06:52.260Z,58.13
2022-12-25T13:09:35.662Z,58.17
2022-12-25T13:12:08.611Z,58.12
2022-12-25T13:14:37.748Z,58.16
2022-12-25T13:17:08.545Z,58.00
2022-12-25T13:19:42.209Z,57.91
2022-12-25T13:22:24.356Z,58.04
2022-12-25T13:24:58.549Z,57.96
2022-12-25T13:27:30.492Z,58.04
2022-12-25T13:29:59.867Z,58.03
2022-12-25T13:32:31.868Z,57.53
2022-12-25T13:35:01.305Z,57.42
2022-12-25T13:37:31.600Z,57.35
2022-12-25T13:40:03.793Z,57.17
2022-12-25T13:42:35.624Z,56.96
2022-12-25T13:45:18.543Z,56.63
2022-12-25T13:47:53.071Z,56.56
2022-12-25T13:50:28.087Z,56.71
2022-12-25T13:53:09.679Z,56.51
2022-12-25T13:55:40.005Z,56.52
2022-12-25T13:58:22.947Z,56.59
2022-12-25T14:00:54.029Z,56.75
2022-12-25T14:03:33.301Z,56.30
2022-12-25T14:06:04.477Z,56.51
2022-12-25T14:08:35.722Z,56.36
2022-12-25T14:11:06.131Z,56.38
2022-12-25T14:13:40.129Z,56.57
2022-12-25T14:16:10.180Z,56.39
2022-12-25T14:18:49.621Z,56.52
2022-12-25T14:21:25.523Z,56.40
2022-12-25T14:23:53.464Z,56.57
2022-12-25T14:26:24.726Z,56.67
2022-12-25T14:28:57.511Z,56.73
2022-12-25T14:31:29.794Z,56.62
2022-12-25T14:34:00.427Z,56.71
2022-12-25T14:36:31.005Z,56.78
2022-12-25T14:39:02.801Z,56.69
2022-12-25T14:41:37.367Z,56.68
2022-12-25T14:44:21.294Z,56.76
2022-12-25T14:46:50.153Z,56.74
2022-12-25T14:49:24.812Z,56.82
2022-12-25T14:51:53.747Z,56.67
2022-12-25T14:54:23.568Z,56.71
2022-12-25T14:56:55.505Z,56.93
2022-12-25T14:59:26.754Z,56.85
2022-12-25T15:01:58.447Z,56.87
2022-12-25T15:04:28.640Z,56.69
2022-12-25T15:06:59.837Z,56.44
2022-12-25T15:09:30.217Z,56.38
2022-12-25T15:11:59.478Z,56.55
2022-12-25T15:14:29.577Z,56.51
2022-12-25T15:17:00.735Z,56.46
2022-12-25T15:19:37.716Z,56.56
2022-12-25T15:22:09.469Z,56.67
2022-12-25T15:24:38.338Z,56.73
2022-12-25T15:27:15.431Z,56.95
2022-12-25T15:30:09.253Z,56.96
2022-12-25T15:32:33.825Z,56.72
2022-12-25T15:35:02.695Z,56.65
2022-12-25T15:37:31.643Z,56.75
2022-12-25T15:40:00.522Z,56.35
2022-12-25T15:42:29.464Z,55.91
2022-12-25T15:44:58.289Z,56.01
2022-12-25T15:47:27.198Z,55.90
2022-12-25T15:49:56.113Z,55.71
2022-12-25T15:52:24.945Z,55.41
2022-12-25T15:54:53.835Z,55.30
2022-12-25T15:57:23.738Z,55.22
2022-12-25T15:59:52.701Z,55.20
2022-12-25T16:02:22.055Z,55.07
2022-12-25T16:04:53.886Z,55.05
2022-12-25T16:07:25.252Z,55.03
2022-12-25T16:09:54.077Z,55.13
2022-12-25T16:12:22.968Z,55.19
2022-12-25T16:14:51.884Z,55.02
2022-12-25T16:17:20.790Z,54.84
2022-12-25T16:19:49.609Z,54.73
2022-12-25T16:22:22.230Z,54.93
2022-12-25T16:24:51.174Z,54.95
2022-12-25T16:27:20.113Z,55.12
2022-12-25T16:29:48.934Z,55.14
2022-12-25T16:32:18.058Z,54.99
2022-12-25T16:34:49.324Z,55.01
2022-12-25T16:37:18.257Z,55.04
2022-12-25T16:39:47.155Z,54.81
2022-12-25T16:42:16.050Z,54.76
2022-12-25T16:44:45.092Z,54.64
2022-12-25T16:47:14.022Z,54.53
2022-12-25T16:49:43.464Z,54.50
2022-12-25T16:52:12.293Z,54.56
2022-12-25T16:54:41.190Z,54.50
2022-12-25T16:57:10.009Z,54.46
2022-12-25T16:59:39.061Z,54.36
2022-12-25T17:02:09.714Z,54.46
2022-12-25T17:04:38.910Z,54.33
2022-12-25T17:07:07.802Z,54.31
2022-12-25T17:09:43.726Z,54.23
2022-12-25T17:12:13.499Z,54.14
2022-12-25T17:14:42.612Z,54.15
2022-12-25T17:17:11.465Z,54.24
2022-12-25T17:19:41.391Z,54.10
2022-12-25T17:22:10.436Z,54.08
2022-12-25T17:24:40.939Z,54.17
2022-12-25T17:27:10.829Z,54.33
2022-12-25T17:29:39.780Z,54.38
2022-12-25T17:32:10.165Z,54.48
2022-12-25T17:34:39.472Z,54.50
2022-12-25T17:37:09.017Z,54.58
2022-12-25T17:39:38.987Z,54.55
2022-12-25T17:42:07.800Z,54.56
2022-12-25T17:44:36.650Z,54.58
2022-12-25T17:47:05.774Z,54.67
2022-12-25T17:49:35.283Z,54.66
2022-12-25T17:52:04.338Z,54.69
2022-12-25T17:54:33.589Z,54.70
2022-12-25T17:57:02.863Z,54.70
2022-12-25T17:59:31.817Z,54.71
2022-12-25T18:02:00.786Z,54.82
2022-12-25T18:04:29.880Z,54.92
2022-12-25T18:06:58.838Z,54.90
2022-12-25T18:09:27.657Z,55.07
2022-12-25T18:11:56.998Z,54.99
2022-12-25T18:14:25.846Z,55.14
2022-12-25T18:16:54.861Z,55.20
2022-12-25T18:19:23.707Z,55.24
2022-12-25T18:21:52.516Z,55.16
2022-12-25T18:24:21.436Z,55.26
2022-12-25T18:26:50.339Z,55.37
2022-12-25T18:29:19.196Z,55.37
2022-12-25T18:31:48.330Z,55.36
2022-12-25T18:34:17.529Z,55.33
2022-12-25T18:36:46.420Z,55.58
2022-12-25T18:39:15.369Z,55.72
2022-12-25T18:41:58.765Z,55.72
2022-12-25T18:44:29.000Z,55.57
2022-12-25T18:46:57.849Z,55.75
2022-12-25T18:49:26.988Z,55.67
2022-12-25T18:52:47.928Z,55.92
2022-12-25T18:54:44.940Z,55.86
2022-12-25T18:57:14.005Z,56.06
2022-12-25T18:59:42.832Z,55.98
2022-12-25T19:02:12.942Z,56.11
2022-12-25T19:04:42.948Z,56.11
2022-12-25T19:07:12.354Z,56.21
2022-12-25T19:09:41.332Z,56.29
2022-12-25T19:12:10.294Z,56.10
2022-12-25T19:14:47.011Z,56.30
2022-12-25T19:17:17.937Z,56.40
2022-12-25T19:19:47.304Z,56.48
2022-12-25T19:22:16.712Z,56.58
2022-12-25T19:24:45.810Z,56.57
2022-12-25T19:27:14.649Z,56.63
2022-12-25T19:29:43.493Z,56.55
2022-12-25T19:32:12.519Z,56.56
2022-12-25T19:34:41.374Z,56.71
2022-12-25T19:37:10.273Z,56.92
2022-12-25T19:39:45.335Z,56.96
2022-12-25T19:42:15.965Z,57.06
2022-12-25T19:44:45.115Z,56.86
2022-12-25T19:47:14.001Z,57.20
2022-12-25T19:49:43.938Z,57.23
2022-12-25T19:52:14.523Z,57.21
2022-12-25T19:54:43.399Z,57.22
2022-12-25T19:57:12.265Z,57.50
2022-12-25T19:59:41.347Z,57.40
2022-12-25T20:02:11.329Z,57.54
2022-12-25T20:04:40.494Z,57.56
2022-12-25T20:07:09.319Z,57.52
2022-12-25T20:09:38.287Z,57.76
2022-12-25T20:12:09.760Z,57.52
2022-12-25T20:14:38.606Z,57.62
2022-12-25T20:17:13.657Z,57.53
2022-12-25T20:19:44.754Z,57.73
2022-12-25T20:22:13.558Z,57.65
2022-12-25T20:24:42.577Z,57.92
2022-12-25T20:27:11.419Z,57.65
2022-12-25T20:29:40.217Z,57.85
2022-12-25T20:32:09.305Z,57.87
2022-12-25T20:34:38.315Z,58.05
2022-12-25T20:37:07.135Z,57.86
2022-12-25T20:39:36.041Z,58.31
2022-12-25T20:42:05.620Z,58.17
2022-12-25T20:44:34.601Z,58.38
2022-12-25T20:47:03.467Z,58.64
2022-12-25T20:49:34.022Z,58.63
2022-12-25T20:52:05.763Z,58.52
2022-12-25T20:54:35.088Z,58.63
2022-12-25T20:57:04.129Z,58.76
2022-12-25T20:59:37.451Z,58.92
2022-12-25T21:02:09.664Z,58.71
2022-12-25T21:04:58.479Z,58.78
2022-12-25T21:07:27.393Z,58.77
2022-12-25T21:09:56.222Z,58.80
2022-12-25T21:12:25.252Z,58.90
2022-12-25T21:14:54.185Z,59.16
2022-12-25T21:17:23.023Z,59.08
2022-12-25T21:19:51.890Z,58.94
2022-12-25T21:22:20.849Z,59.25
2022-12-25T21:24:51.449Z,59.29
2022-12-25T21:27:20.279Z,59.20
2022-12-25T21:29:49.136Z,59.37
2022-12-25T21:32:36.345Z,59.32
2022-12-25T21:35:06.151Z,59.41
2022-12-25T21:37:35.091Z,59.47
2022-12-25T21:40:04.645Z,59.59
2022-12-25T21:42:33.476Z,59.58
2022-12-25T21:45:02.452Z,59.42
2022-12-25T21:48:01.582Z,59.78
2022-12-25T21:50:39.497Z,59.72
2022-12-25T21:53:08.676Z,59.89
2022-12-25T21:55:37.508Z,60.16
2022-12-25T21:58:06.343Z,60.14
2022-12-25T22:00:35.285Z,60.96
2022-12-25T22:03:04.530Z,62.11
2022-12-25T22:05:54.631Z,62.53
2022-12-25T22:08:23.443Z,62.85
2022-12-25T22:10:52.355Z,62.82
2022-12-25T22:13:39.604Z,62.77
2022-12-25T22:16:26.859Z,63.21
2022-12-25T22:19:14.035Z,63.15
2022-12-25T22:21:43.060Z,63.35
2022-12-25T22:24:11.893Z,63.66
2022-12-25T22:26:43.692Z,63.76
2022-12-25T22:29:12.498Z,63.96
2022-12-25T22:31:46.754Z,64.02
2022-12-25T22:34:16.858Z,64.12
2022-12-25T22:36:47.342Z,64.18
2022-12-25T22:39:16.474Z,64.29
2022-12-25T22:41:45.298Z,64.56
2022-12-25T22:44:17.584Z,64.31
2022-12-25T22:46:47.123Z,64.65
2022-12-25T22:49:16.320Z,64.40
2022-12-25T22:51:45.828Z,64.41
2022-12-25T22:54:15.721Z,64.39
2022-12-25T22:56:46.352Z,65.04
2022-12-25T22:59:16.908Z,65.06
2022-12-25T23:01:45.988Z,65.14
2022-12-25T23:04:14.990Z,65.32
2022-12-25T23:06:43.984Z,65.26
2022-12-25T23:09:20.553Z,65.26
2022-12-25T23:11:53.286Z,65.29
2022-12-25T23:14:40.424Z,65.37
2022-12-25T23:17:27.397Z,65.64
2022-12-25T23:20:14.754Z,65.76
2022-12-25T23:23:04.076Z,65.94
2022-12-25T23:26:00.956Z,65.87
2022-12-25T23:28:46.827Z,65.79
2022-12-25T23:31:15.896Z,65.67
2022-12-25T23:33:44.737Z,65.88
2022-12-25T23:36:13.576Z,65.65
2022-12-25T23:38:42.397Z,65.89
2022-12-25T23:41:11.377Z,65.80
2022-12-25T23:43:40.217Z,65.77
2022-12-25T23:46:09.174Z,65.95
2022-12-25T23:48:38.039Z,65.96
2022-12-25T23:51:08.155Z,66.12
2022-12-25T23:53:37.034Z,66.09
2022-12-25T23:56:06.790Z,66.10
2022-12-25T23:58:35.803Z,66.03
